Airfield :
LOGIN :

Register | Disclaimer

   EN    FR    IT 

 










Legend :    VFR   Marginal VFR   IFR   Intensive IFR   Very Intensive IFR
Visi :
Ceiling :
>= 8 km
>= 3000ft
5 to 8 km
1000 to 3000 ft
1500m to 5 km
500 to 1000 ft
800 to 1500m
200 to 500 ft
< 800m
< 200 ft
Symbols :   Thunderstorms  Fog  Heavy snow  Heavy precipitations  Wind > 20 kt
SIGMETs :     Misc.  Thunderstorms  Icing  Turbulence  Mountain Waves  Volcanic Ashes







- Airport Elevation : 154 ft
- IATA code : SZZ


EPSC - Szczecin Goleniow

CURRENT METAR :
  • 141800Z 20008KT 170V230 7000 -SHRA SCT005CB BKN006 02/01 Q0990

EXPIRED METARs :
  • 141730Z 22008KT 190V250 9999 FEW022 SCT030 03/M00 Q0990
  • 141700Z 22010KT 180V250 9999 FEW016 03/00 Q0990
  • 141630Z 22011KT 9999 SCT013 OVC015 03/01 Q0990
  • 141600Z 21012KT 190V250 9999 FEW012 SCT015 BKN018 04/01 Q0989
  • 141530Z 20009KT 170V240 9999 -SHRA FEW012TCU SCT016 BKN020 04/01 Q0989

TAF TAF EPSC
Valid from the 14 at 18:00 until the 15 at 18:00 UTC


141730Z 1418/1518 23010KT 9999 BKN017
TEMPO 1418/1501 4500 -RA BR BKN008
BECMG 1502/1505 17005KT 4000 BR BKN006
PROB40
TEMPO 1505/1510 2000 BR BKN003
BECMG 1511/1514 25010KT 8000 BKN018
No reported NOTAMs for that airfield.



MET'MAP, your aeronautical weather chart ! - Copyright ORBIFLY December 2007 - Disclaimer

ORBIFLY MET'MAP TEAM :

Programming & Development : Alexandra Zaïnal
Concept & Development : Baudouin d'Aumeries
Co-Development & Prog : Marc-Olivier Méhu
Technical & hardware support : Manuel Goepfert

Contact : metmap@orbifly.com




SOURCES & CREDITS :

   NOAA